Mahnomen, Minnesota
Current Conditions -  °F | °C
As of 11:55 PM on Monday 26 Jan 2015 (Local Time) from K3N8 Reporting Station
Overcast Overcast  
Wind Chill: 21°   Ceiling: 600
Heat Index: 27°   Visibility: 10mi
Dew Point: 25°   Wind: 5mph
Humidity: 94%   Direction: 290°WNW
Pressure: 30.02"   Gusts: NA
Location:  47.32°N, 95.97°W
Report Text: K3N8 270555Z AUTO 29004KT 10SM OVC006 M03/M04 A3002 RMK AO2 T10301038 11016 21030 400171041
Loading
Personal Weather Stations






























Interactive Weather Map New forecast layout! Learn more

10-Day Weather Forecast

Advertisements
Track Severe Weather on mobile